Time;durP1;ratioP1;P1;durP2;ratioP2;P2;SDS_P1;SDS_P2;PMS_P1;PMS_P2;Temp;Humidity;BMP_temperature;BMP_pressure;BME280_temperature;BME280_humidity;BME280_pressure;Samples;Min_cycle;Max_cycle;Signal;HPM_P1;HPM_P2
2021/03/16 00:02:56;;;;;;;5.57;5.10;;;7.30;42.50;;;;;;10433328;28;20237;-73
2021/03/16 00:07:59;;;;;;;5.77;5.10;;;7.30;42.40;;;;;;10438751;28;20221;-73
2021/03/16 00:13:02;;;;;;;5.57;5.13;;;7.30;42.50;;;;;;10412518;28;20220;-73
2021/03/16 00:18:07;;;;;;;7.97;5.73;;;7.30;42.70;;;;;;10410918;28;20595;-73
2021/03/16 00:23:10;;;;;;;5.63;5.10;;;7.30;42.50;;;;;;10407531;28;20233;-73
2021/03/16 00:28:13;;;;;;;6.13;5.53;;;7.30;42.60;;;;;;10410723;28;20313;-73
2021/03/16 00:33:15;;;;;;;6.90;6.20;;;7.30;42.70;;;;;;10411829;28;20585;-73
2021/03/16 00:38:18;;;;;;;6.50;5.73;;;7.30;42.60;;;;;;10409619;28;20652;-73
2021/03/16 00:43:21;;;;;;;5.80;5.30;;;7.30;42.70;;;;;;10416918;28;20638;-73
2021/03/16 00:48:23;;;;;;;6.03;5.43;;;7.30;42.70;;;;;;10407493;28;20237;-73
2021/03/16 00:53:26;;;;;;;6.97;5.63;;;7.30;42.70;;;;;;10423596;28;20242;-73
2021/03/16 00:58:30;;;;;;;6.13;5.53;;;7.30;42.80;;;;;;10415485;28;20217;-73
2021/03/16 01:03:32;;;;;;;5.93;5.30;;;7.30;42.70;;;;;;10407455;28;20225;-73
2021/03/16 01:08:34;;;;;;;6.03;5.43;;;7.30;42.70;;;;;;10416997;28;20254;-73
2021/03/16 01:13:37;;;;;;;6.53;5.73;;;7.40;42.80;;;;;;10416303;28;20218;-73
2021/03/16 01:18:40;;;;;;;5.77;5.23;;;7.40;42.80;;;;;;10409222;28;20228;-73
2021/03/16 01:23:42;;;;;;;7.90;5.80;;;7.40;42.70;;;;;;10413609;28;20225;-73
2021/03/16 01:28:45;;;;;;;6.40;5.57;;;7.40;42.70;;;;;;10418888;28;20230;-73
2021/03/16 01:33:48;;;;;;;6.27;5.43;;;7.40;42.70;;;;;;10416593;28;20225;-73
2021/03/16 01:38:50;;;;;;;6.10;5.27;;;7.40;42.60;;;;;;10412609;28;20514;-74
2021/03/16 01:43:53;;;;;;;5.73;5.23;;;7.40;42.60;;;;;;10418280;28;20710;-74
2021/03/16 01:48:55;;;;;;;5.70;4.97;;;7.40;42.70;;;;;;10425781;28;20229;-74
2021/03/16 01:53:58;;;;;;;4.93;4.43;;;7.40;42.50;;;;;;10415651;28;20599;-74
2021/03/16 01:59:01;;;;;;;5.63;5.07;;;7.50;42.50;;;;;;10421146;28;20875;-74
2021/03/16 02:04:04;;;;;;;5.67;5.00;;;7.50;42.70;;;;;;10420195;28;20228;-73
2021/03/16 02:09:11;;;;;;;5.50;4.97;;;7.50;42.60;;;;;;10421971;28;20228;-73
2021/03/16 02:14:22;;;;;;;6.93;4.73;;;7.50;42.80;;;;;;10425314;28;20316;-74
2021/03/16 02:19:38;;;;;;;9.13;5.20;;;7.50;42.70;;;;;;10417479;28;20253;-74
2021/03/16 02:25:03;;;;;;;5.40;4.90;;;7.60;42.70;;;;;;10420954;28;20228;-74
2021/03/16 02:30:09;;;;;;;6.50;5.33;;;7.50;42.70;;;;;;10409629;28;20507;-74
2021/03/16 02:35:15;;;;;;;5.47;4.97;;;7.50;42.30;;;;;;10414486;28;20226;-74
2021/03/16 02:40:19;;;;;;;6.73;5.37;;;7.50;42.30;;;;;;10417200;28;20233;-74
2021/03/16 02:45:22;;;;;;;5.70;5.10;;;7.50;42.30;;;;;;10416383;28;20236;-74
2021/03/16 02:50:25;;;;;;;6.10;5.03;;;7.50;42.30;;;;;;10419605;28;20228;-74
2021/03/16 02:55:31;;;;;;;6.13;4.60;;;7.50;42.30;;;;;;10417172;28;20303;-74
2021/03/16 03:00:35;;;;;;;5.20;4.70;;;7.50;42.30;;;;;;10414753;28;20588;-74
2021/03/16 03:05:39;;;;;;;5.07;4.57;;;7.40;42.20;;;;;;10412563;28;20774;-74
2021/03/16 03:10:41;;;;;;;6.00;4.80;;;7.40;42.20;;;;;;10409041;28;20340;-74
2021/03/16 03:15:46;;;;;;;5.73;4.73;;;7.40;42.10;;;;;;10419176;28;20224;-74
2021/03/16 03:20:48;;;;;;;5.73;4.67;;;7.40;42.20;;;;;;10417249;28;20249;-74
2021/03/16 03:25:56;;;;;;;6.43;4.63;;;7.30;42.10;;;;;;10417879;28;20604;-74
2021/03/16 03:31:01;;;;;;;5.33;4.60;;;7.30;42.30;;;;;;10409059;28;20260;-74
2021/03/16 03:36:05;;;;;;;8.30;4.80;;;7.30;42.20;;;;;;10414399;28;20590;-74
2021/03/16 03:41:09;;;;;;;7.00;4.53;;;7.30;42.10;;;;;;10419605;28;20228;-74
2021/03/16 03:46:16;;;;;;;8.50;4.83;;;7.30;42.20;;;;;;10411712;28;20304;-74
2021/03/16 03:51:20;;;;;;;5.87;4.50;;;7.30;42.20;;;;;;10421184;28;20233;-73
2021/03/16 03:56:23;;;;;;;6.37;4.37;;;7.30;42.20;;;;;;10416256;28;20685;-74
2021/03/16 04:01:30;;;;;;;5.97;4.60;;;7.30;42.30;;;;;;10411895;28;20482;-73
2021/03/16 04:06:33;;;;;;;6.40;4.90;;;7.30;42.40;;;;;;10407744;28;20296;-74
2021/03/16 04:11:35;;;;;;;7.10;4.67;;;7.30;42.20;;;;;;10418231;28;20589;-74
2021/03/16 04:16:39;;;;;;;5.57;4.87;;;7.30;42.20;;;;;;10414849;28;20230;-74
2021/03/16 04:21:42;;;;;;;7.67;5.30;;;7.30;42.30;;;;;;10408122;28;20225;-74
2021/03/16 04:26:45;;;;;;;7.87;5.20;;;7.30;43.00;;;;;;10415558;28;20224;-74
2021/03/16 04:31:48;;;;;;;6.80;5.20;;;7.30;42.10;;;;;;10407008;28;20278;-74
2021/03/16 04:36:50;;;;;;;8.80;5.37;;;7.30;42.40;;;;;;10415222;28;20226;-74
2021/03/16 04:41:52;;;;;;;8.93;5.27;;;7.20;42.20;;;;;;10412020;28;20225;-74
2021/03/16 04:46:55;;;;;;;7.37;5.33;;;7.30;42.30;;;;;;10423438;28;20581;-74
2021/03/16 04:51:57;;;;;;;7.40;5.10;;;7.20;42.30;;;;;;10417780;28;20221;-74
2021/03/16 04:57:00;;;;;;;6.63;5.10;;;7.30;42.30;;;;;;10418498;28;20229;-74
2021/03/16 05:02:03;;;;;;;7.20;5.07;;;7.30;42.20;;;;;;10429573;28;20227;-74
2021/03/16 05:07:05;;;;;;;6.67;4.73;;;7.20;42.40;;;;;;10413302;28;20241;-73
2021/03/16 05:12:08;;;;;;;5.83;4.40;;;7.10;42.20;;;;;;10426526;28;20229;-74
2021/03/16 05:17:12;;;;;;;8.47;4.50;;;7.10;42.40;;;;;;10419269;28;20510;-74
2021/03/16 05:22:14;;;;;;;7.47;4.40;;;7.00;42.50;;;;;;10421189;28;20229;-74
2021/03/16 05:27:16;;;;;;;6.97;4.33;;;7.00;42.40;;;;;;10415867;28;20227;-74
2021/03/16 05:32:20;;;;;;;4.93;3.90;;;6.90;42.40;;;;;;10431089;28;20240;-74
2021/03/16 05:37:23;;;;;;;5.70;3.93;;;6.90;42.50;;;;;;10431664;28;20709;-74
2021/03/16 05:42:26;;;;;;;5.73;4.20;;;6.90;42.40;;;;;;10419072;28;20230;-74
2021/03/16 05:47:29;;;;;;;4.77;3.57;;;6.90;42.50;;;;;;10431844;22;20225;-69
2021/03/16 05:52:32;;;;;;;7.20;4.00;;;6.90;42.50;;;;;;10440841;28;20221;-69
2021/03/16 05:57:34;;;;;;;6.27;4.00;;;7.00;42.50;;;;;;10445544;28;20229;-69
2021/03/16 06:02:38;;;;;;;6.67;4.40;;;7.00;42.40;;;;;;10440954;28;20228;-70
2021/03/16 06:07:40;;;;;;;6.13;4.20;;;7.10;42.50;;;;;;10443974;28;20279;-70
2021/03/16 06:12:42;;;;;;;7.53;4.43;;;7.10;42.30;;;;;;10440625;28;20221;-70
2021/03/16 06:17:47;;;;;;;6.70;4.83;;;7.10;42.30;;;;;;10441432;28;20577;-70
2021/03/16 06:22:50;;;;;;;5.87;4.43;;;7.20;42.50;;;;;;10443261;28;20766;-70
2021/03/16 06:28:00;;;;;;;4.03;3.07;;;7.20;42.30;;;;;;10442732;28;20225;-70
2021/03/16 06:33:04;;;;;;;5.17;2.90;;;7.10;42.00;;;;;;10441525;28;20228;-70
2021/03/16 06:38:08;;;;;;;4.63;3.83;;;7.10;41.80;;;;;;10451512;28;20312;-70
2021/03/16 06:43:12;;;;;;;5.43;3.57;;;7.00;42.00;;;;;;10439838;28;20225;-70
2021/03/16 06:48:16;;;;;;;4.33;3.90;;;7.00;42.30;;;;;;10431871;28;20256;-70
2021/03/16 06:53:28;;;;;;;4.70;3.70;;;7.00;42.50;;;;;;10438485;28;20312;-71
2021/03/16 06:58:41;;;;;;;3.73;3.43;;;7.00;42.90;;;;;;10430774;28;20251;-71
2021/03/16 07:03:45;;;;;;;5.13;3.77;;;7.00;42.40;;;;;;10441949;28;20229;-70
2021/03/16 07:08:49;;;;;;;7.10;3.93;;;7.00;42.70;;;;;;10440772;28;20233;-70
2021/03/16 07:13:52;;;;;;;5.60;4.37;;;7.10;42.70;;;;;;10436387;28;20693;-70
2021/03/16 07:18:55;;;;;;;7.50;4.63;;;7.10;42.60;;;;;;10437928;28;20587;-70
2021/03/16 07:24:02;;;;;;;7.77;5.30;;;7.20;42.60;;;;;;10450997;28;20712;-70
2021/03/16 07:29:05;;;;;;;8.33;5.27;;;7.20;42.60;;;;;;10446234;28;20235;-70
2021/03/16 07:34:13;;;;;;;6.27;4.90;;;7.20;42.50;;;;;;10443632;28;20225;-70
2021/03/16 07:39:20;;;;;;;7.07;4.90;;;7.20;42.70;;;;;;10436783;28;20241;-70
2021/03/16 07:44:22;;;;;;;7.20;4.90;;;7.30;43.00;;;;;;10437167;28;20369;-70
2021/03/16 07:49:30;;;;;;;7.73;4.77;;;7.30;42.70;;;;;;10440815;28;20313;-70
2021/03/16 07:54:36;;;;;;;7.83;4.77;;;7.30;43.10;;;;;;10440882;28;20224;-70
2021/03/16 07:59:38;;;;;;;5.87;4.37;;;7.40;42.70;;;;;;10452892;28;20230;-70
2021/03/16 08:04:41;;;;;;;8.13;4.60;;;7.40;42.60;;;;;;10449939;28;20708;-70
2021/03/16 08:09:45;;;;;;;6.80;4.00;;;7.40;42.50;;;;;;10436226;28;20628;-70
2021/03/16 08:14:47;;;;;;;5.90;3.90;;;7.40;42.70;;;;;;10438937;28;20255;-70
2021/03/16 08:19:51;;;;;;;5.53;3.60;;;7.50;42.70;;;;;;10454724;28;20453;-70
2021/03/16 08:24:59;;;;;;;4.03;3.57;;;7.50;42.50;;;;;;10468564;28;20220;-70
2021/03/16 08:30:06;;;;;;;5.10;3.60;;;7.60;42.70;;;;;;10459545;28;20235;-70
2021/03/16 08:35:15;;;;;;;5.67;3.60;;;7.60;43.40;;;;;;10461518;28;20681;-70
2021/03/16 08:40:22;;;;;;;5.10;2.60;;;7.70;42.30;;;;;;10467271;28;20229;-70
2021/03/16 08:45:29;;;;;;;4.97;2.20;;;7.70;41.50;;;;;;10448748;28;20275;-70
2021/03/16 08:50:33;;;;;;;3.60;2.17;;;7.70;42.50;;;;;;10468725;28;20232;-70
2021/03/16 08:55:35;;;;;;;4.07;2.20;;;7.70;41.50;;;;;;10438042;28;20228;-74
2021/03/16 09:00:39;;;;;;;4.67;2.30;;;7.70;41.60;;;;;;10463824;28;20235;-70
2021/03/16 09:05:42;;;;;;;4.70;2.67;;;7.70;41.70;;;;;;10442064;28;20255;-71
2021/03/16 09:10:47;;;;;;;6.70;2.70;;;7.70;41.70;;;;;;10470855;28;20286;-71
2021/03/16 09:15:50;;;;;;;4.37;2.23;;;7.70;41.60;;;;;;10454770;28;20252;-70
2021/03/16 09:20:53;;;;;;;7.97;3.13;;;7.70;42.00;;;;;;10457726;28;20231;-70
2021/03/16 09:25:55;;;;;;;4.87;2.63;;;7.80;41.60;;;;;;10472360;28;20219;-70
2021/03/16 09:31:00;;;;;;;7.57;3.03;;;7.90;41.60;;;;;;10461634;28;20216;-70
2021/03/16 09:36:04;;;;;;;4.13;2.40;;;8.00;42.00;;;;;;10448575;28;20279;-71
2021/03/16 09:41:09;;;;;;;6.73;2.20;;;8.10;41.20;;;;;;10446260;28;20235;-70
2021/03/16 09:46:13;;;;;;;3.87;2.23;;;8.10;40.80;;;;;;10426308;28;20325;-70
2021/03/16 09:51:19;;;;;;;4.83;2.10;;;8.20;40.30;;;;;;10464839;28;20229;-71
2021/03/16 09:56:26;;;;;;;6.73;2.20;;;8.20;39.50;;;;;;10460479;28;20233;-71
2021/03/16 10:01:28;;;;;;;4.60;1.97;;;8.20;39.40;;;;;;10451701;28;20659;-71
2021/03/16 10:06:37;;;;;;;5.13;2.20;;;8.20;39.40;;;;;;10443130;28;20756;-70
2021/03/16 10:11:39;;;;;;;3.03;1.70;;;8.20;38.90;;;;;;10458893;28;20228;-70
2021/03/16 10:16:41;;;;;;;4.83;2.10;;;8.00;39.30;;;;;;10452605;28;20711;-70
2021/03/16 10:21:44;;;;;;;3.13;1.80;;;8.00;39.60;;;;;;10465069;28;20235;-70
2021/03/16 10:26:54;;;;;;;5.87;2.03;;;8.00;39.30;;;;;;10455061;28;20248;-71
2021/03/16 10:31:58;;;;;;;4.77;2.03;;;7.90;39.20;;;;;;10439455;28;20218;-72
2021/03/16 10:37:02;;;;;;;4.63;2.10;;;8.00;39.30;;;;;;10457917;28;20239;-71
2021/03/16 10:42:05;;;;;;;4.07;1.97;;;8.00;39.30;;;;;;10465035;28;20225;-71
2021/03/16 10:47:08;;;;;;;3.53;2.10;;;8.00;39.60;;;;;;10457895;28;20235;-71
2021/03/16 10:52:12;;;;;;;3.50;1.80;;;8.10;39.30;;;;;;10457063;28;20274;-70
2021/03/16 10:57:14;;;;;;;4.27;1.60;;;8.30;39.50;;;;;;10440969;28;20229;-70
2021/03/16 11:02:17;;;;;;;3.83;1.50;;;8.40;38.00;;;;;;10449839;28;20756;-71
2021/03/16 11:07:20;;;;;;;4.07;1.97;;;8.40;38.20;;;;;;10446177;28;20633;-71
2021/03/16 11:12:22;;;;;;;4.70;1.90;;;8.40;38.00;;;;;;10459225;28;20224;-71
2021/03/16 11:17:25;;;;;;;4.47;1.60;;;8.50;38.50;;;;;;10444579;28;20716;-70
2021/03/16 11:22:28;;;;;;;6.23;2.10;;;8.50;37.80;;;;;;10443225;28;20599;-70
2021/03/16 11:27:30;;;;;;;4.47;1.90;;;8.50;38.40;;;;;;10419569;28;20229;-70
2021/03/16 11:32:32;;;;;;;3.30;1.70;;;8.50;38.60;;;;;;10457443;28;20561;-70
2021/03/16 11:37:35;;;;;;;2.50;1.40;;;8.60;37.40;;;;;;10451626;28;20235;-69
2021/03/16 11:42:38;;;;;;;5.37;1.60;;;8.70;37.40;;;;;;10449504;28;20219;-70
2021/03/16 11:47:42;;;;;;;3.43;1.60;;;8.70;36.90;;;;;;10433423;28;20275;-71
2021/03/16 11:52:45;;;;;;;4.13;1.43;;;8.80;36.70;;;;;;10450539;28;20229;-71
2021/03/16 11:57:47;;;;;;;3.00;1.50;;;8.90;37.00;;;;;;10462666;28;20643;-71
2021/03/16 12:02:49;;;;;;;5.60;1.70;;;9.00;38.20;;;;;;10469581;22;20220;-70
2021/03/16 12:07:53;;;;;;;3.63;1.87;;;9.10;38.40;;;;;;10468472;28;20228;-68
2021/03/16 12:12:55;;;;;;;5.30;1.57;;;9.30;37.80;;;;;;10459284;28;20235;-69
2021/03/16 12:17:58;;;;;;;4.60;1.60;;;9.40;37.40;;;;;;10468110;28;20703;-70
2021/03/16 12:23:01;;;;;;;3.17;1.37;;;9.50;36.90;;;;;;10466770;28;20227;-70
2021/03/16 12:28:03;;;;;;;4.97;1.60;;;9.50;36.60;;;;;;10451056;28;20304;-69
2021/03/16 12:33:06;;;;;;;3.73;1.50;;;9.40;36.80;;;;;;10455214;28;20225;-69
2021/03/16 12:38:10;;;;;;;3.77;1.40;;;9.30;36.90;;;;;;10459094;28;20252;-68
2021/03/16 12:43:12;;;;;;;3.50;1.47;;;9.30;36.20;;;;;;10463372;28;20716;-69
2021/03/16 12:48:14;;;;;;;3.73;1.40;;;9.30;36.70;;;;;;10449628;28;20225;-71
2021/03/16 12:53:18;;;;;;;2.90;1.57;;;9.40;36.40;;;;;;10461455;28;20313;-69
2021/03/16 12:58:20;;;;;;;3.00;1.60;;;9.40;36.10;;;;;;10467276;28;20323;-69
2021/03/16 13:03:22;;;;;;;1.97;1.17;;;9.40;35.80;;;;;;10468269;28;20224;-70
2021/03/16 13:08:26;;;;;;;3.50;1.43;;;9.40;35.20;;;;;;10469816;28;20598;-70
2021/03/16 13:13:28;;;;;;;2.60;1.37;;;9.30;34.50;;;;;;10461968;28;20282;-70
2021/03/16 13:18:31;;;;;;;2.63;1.50;;;9.30;35.10;;;;;;10475771;28;20240;-70
2021/03/16 13:23:34;;;;;;;2.53;1.40;;;9.20;35.00;;;;;;10459438;28;20896;-70
2021/03/16 13:28:36;;;;;;;2.73;1.43;;;9.20;35.00;;;;;;10462606;28;20250;-69
2021/03/16 13:33:38;;;;;;;3.47;1.47;;;9.20;35.50;;;;;;10474932;28;20247;-70
2021/03/16 13:38:43;;;;;;;3.53;1.70;;;9.30;35.30;;;;;;10475731;28;20854;-70
2021/03/16 13:43:46;;;;;;;3.63;1.50;;;9.20;34.10;;;;;;10478226;28;20221;-70
2021/03/16 13:48:49;;;;;;;3.97;1.60;;;9.20;34.40;;;;;;10472048;28;20953;-68
2021/03/16 13:53:52;;;;;;;3.83;1.70;;;9.10;34.50;;;;;;10476540;28;20235;-69
2021/03/16 13:58:54;;;;;;;3.67;1.57;;;9.10;35.00;;;;;;10472923;28;20244;-70
2021/03/16 14:03:56;;;;;;;2.90;1.63;;;9.10;35.20;;;;;;10466397;28;20260;-69
2021/03/16 14:09:00;;;;;;;4.10;1.77;;;9.10;35.00;;;;;;10461566;28;20286;-69
2021/03/16 14:14:02;;;;;;;5.30;2.10;;;9.10;34.30;;;;;;10461079;28;20235;-70
2021/03/16 14:19:04;;;;;;;3.20;1.60;;;9.10;35.00;;;;;;10462422;28;20236;-69
2021/03/16 14:24:08;;;;;;;5.17;2.43;;;9.20;35.20;;;;;;10474326;28;20220;-70
2021/03/16 14:29:10;;;;;;;5.30;2.67;;;9.20;35.40;;;;;;10465813;28;20232;-70
2021/03/16 14:34:13;;;;;;;3.33;1.73;;;9.20;35.40;;;;;;10469330;28;20224;-70
2021/03/16 14:39:16;;;;;;;3.63;2.23;;;9.20;35.60;;;;;;10469318;28;20232;-68
2021/03/16 14:44:19;;;;;;;2.83;1.80;;;9.30;35.60;;;;;;10466908;28;20247;-69
2021/03/16 14:49:21;;;;;;;3.53;1.90;;;9.20;35.80;;;;;;10449440;28;20240;-69
2021/03/16 14:54:24;;;;;;;3.77;2.13;;;9.20;36.20;;;;;;10460550;28;20746;-69
2021/03/16 14:59:26;;;;;;;5.53;2.47;;;9.20;36.40;;;;;;10459519;28;20229;-69
2021/03/16 15:04:30;;;;;;;4.27;2.03;;;9.20;36.80;;;;;;10465466;28;20250;-68
2021/03/16 15:09:34;;;;;;;4.07;2.43;;;9.30;37.50;;;;;;10463973;28;20235;-69
2021/03/16 15:14:36;;;;;;;3.67;2.00;;;9.30;36.80;;;;;;10456322;28;20229;-68
2021/03/16 15:19:38;;;;;;;5.53;2.33;;;9.40;36.90;;;;;;10463589;28;20589;-68
2021/03/16 15:24:41;;;;;;;1.90;1.73;;;9.40;36.40;;;;;;10464265;28;20224;-69
2021/03/16 15:29:44;;;;;;;5.93;1.90;;;9.40;36.00;;;;;;10465361;28;20235;-69
2021/03/16 15:34:46;;;;;;;2.60;1.50;;;9.40;36.20;;;;;;10457174;28;20216;-69
2021/03/16 15:39:57;;;;;;;3.80;2.10;;;9.30;36.30;;;;;;10458864;28;20630;-69
2021/03/16 15:44:59;;;;;;;4.27;1.63;;;9.30;35.90;;;;;;10462001;28;20221;-69
2021/03/16 15:50:06;;;;;;;3.77;1.50;;;9.20;35.60;;;;;;10453746;28;20789;-70
2021/03/16 15:55:12;;;;;;;4.97;2.00;;;9.10;36.00;;;;;;10459391;28;20734;-69
2021/03/16 16:00:15;;;;;;;4.63;2.00;;;9.10;35.50;;;;;;10464318;28;20725;-70
2021/03/16 16:05:18;;;;;;;4.07;2.20;;;9.10;35.80;;;;;;10453919;28;20221;-69
2021/03/16 16:10:29;;;;;;;3.50;1.73;;;9.10;36.00;;;;;;10455777;28;20711;-69
2021/03/16 16:15:32;;;;;;;3.17;1.87;;;9.10;35.70;;;;;;10454115;28;20645;-69
2021/03/16 16:20:34;;;;;;;4.73;2.30;;;9.20;36.20;;;;;;10458831;28;20229;-69
2021/03/16 16:25:41;;;;;;;2.63;2.20;;;9.20;36.20;;;;;;10451548;28;20221;-69
2021/03/16 16:30:44;;;;;;;3.40;2.10;;;9.30;36.20;;;;;;10453106;28;22770;-69
2021/03/16 16:35:46;;;;;;;7.20;3.13;;;9.30;35.90;;;;;;10452198;28;20802;-69
2021/03/16 16:40:53;;;;;;;24.07;9.27;;;9.30;36.00;;;;;;10467493;28;20336;-72
2021/03/16 16:45:55;;;;;;;6.97;3.70;;;9.40;36.10;;;;;;10474530;28;20246;-70
2021/03/16 16:51:00;;;;;;;8.17;4.17;;;9.30;36.10;;;;;;10493656;28;20228;-70
2021/03/16 16:56:05;;;;;;;4.90;3.30;;;9.20;36.60;;;;;;10499313;28;20879;-69
2021/03/16 17:01:07;;;;;;;4.17;2.90;;;9.20;36.40;;;;;;10497865;28;20224;-70
2021/03/16 17:06:10;;;;;;;4.83;2.60;;;9.10;36.50;;;;;;10482392;28;20220;-69
2021/03/16 17:11:19;;;;;;;3.97;3.00;;;9.00;36.70;;;;;;10490279;28;20236;-69
2021/03/16 17:16:22;;;;;;;3.77;3.00;;;8.90;36.70;;;;;;10486229;28;20704;-69
2021/03/16 17:21:25;;;;;;;5.50;2.80;;;8.90;36.80;;;;;;10498222;28;20307;-69
2021/03/16 17:26:28;;;;;;;5.40;4.73;;;8.90;36.70;;;;;;10477602;28;20772;-69
2021/03/16 17:31:30;;;;;;;4.60;2.87;;;8.90;36.70;;;;;;10492903;28;20311;-70
2021/03/16 17:36:32;;;;;;;4.50;3.03;;;8.80;36.70;;;;;;10478165;28;20231;-70
2021/03/16 17:41:45;;;;;;;4.70;3.57;;;8.70;36.80;;;;;;10494240;28;20262;-69
2021/03/16 17:46:47;;;;;;;7.93;4.20;;;8.60;36.90;;;;;;10496979;28;20224;-69
2021/03/16 17:51:50;;;;;;;5.20;3.40;;;8.60;37.00;;;;;;10471296;28;20359;-69
2021/03/16 17:56:53;;;;;;;4.17;3.37;;;8.60;37.00;;;;;;10467897;28;20224;-69
2021/03/16 18:01:56;;;;;;;4.73;3.47;;;8.50;37.00;;;;;;10501075;22;20275;-66
2021/03/16 18:06:58;;;;;;;5.83;4.27;;;8.50;37.10;;;;;;10439809;28;20228;-66
2021/03/16 18:12:11;;;;;;;7.87;4.27;;;8.40;37.20;;;;;;10427246;28;20233;-66
2021/03/16 18:17:14;;;;;;;6.73;3.47;;;8.40;37.20;;;;;;10445000;22;20736;-67
2021/03/16 18:22:16;;;;;;;5.23;3.80;;;8.30;37.20;;;;;;10445520;28;20236;-67
2021/03/16 18:27:19;;;;;;;4.63;3.77;;;8.20;37.20;;;;;;10444213;28;20233;-67
2021/03/16 18:32:21;;;;;;;6.10;5.27;;;8.20;37.30;;;;;;10445957;28;20233;-67
2021/03/16 18:37:24;;;;;;;9.40;6.90;;;8.10;37.20;;;;;;10446850;28;20236;-67
2021/03/16 18:42:35;;;;;;;12.73;8.33;;;8.10;37.30;;;;;;10444307;28;20312;-67
2021/03/16 18:47:37;;;;;;;10.83;7.17;;;7.90;37.40;;;;;;10447529;28;20712;-70
2021/03/16 18:52:40;;;;;;;12.63;8.67;;;7.80;37.50;;;;;;10449126;28;20221;-70
2021/03/16 18:57:43;;;;;;;13.00;9.33;;;7.80;37.60;;;;;;10440342;28;20774;-70
2021/03/16 19:02:47;;;;;;;10.80;8.33;;;7.70;37.70;;;;;;10441116;28;20222;-69
2021/03/16 19:07:49;;;;;;;13.53;10.23;;;7.60;37.70;;;;;;10437928;28;20275;-70
2021/03/16 19:12:55;;;;;;;7.57;5.13;;;7.50;37.90;;;;;;10438668;28;20221;-70
2021/03/16 19:17:57;;;;;;;7.57;4.33;;;7.50;38.00;;;;;;10439466;28;20644;-69
2021/03/16 19:22:59;;;;;;;5.00;3.80;;;7.50;38.00;;;;;;10437090;28;20217;-70
2021/03/16 19:28:03;;;;;;;4.73;3.60;;;7.60;38.10;;;;;;10438931;28;20612;-70
2021/03/16 19:33:05;;;;;;;6.13;3.83;;;7.50;38.10;;;;;;10438077;28;20257;-70
2021/03/16 19:38:08;;;;;;;7.47;4.07;;;7.60;38.00;;;;;;10442078;28;20229;-70
2021/03/16 19:43:20;;;;;;;5.17;3.93;;;7.60;37.90;;;;;;10424688;28;20236;-69
2021/03/16 19:48:22;;;;;;;5.63;4.10;;;7.60;38.20;;;;;;10438169;28;20238;-70
2021/03/16 19:53:24;;;;;;;3.87;3.40;;;7.50;38.70;;;;;;10431294;28;20229;-70
2021/03/16 19:58:27;;;;;;;4.17;3.37;;;7.40;38.70;;;;;;10429659;28;20629;-70
2021/03/16 20:03:29;;;;;;;2.27;2.10;;;7.30;38.70;;;;;;10427770;28;20225;-70
2021/03/16 20:08:32;;;;;;;1.80;1.50;;;7.10;38.50;;;;;;10425953;28;20298;-71
2021/03/16 20:13:40;;;;;;;3.40;2.63;;;7.00;38.40;;;;;;10429892;28;20324;-70
2021/03/16 20:18:42;;;;;;;2.47;2.23;;;6.90;38.30;;;;;;10425250;28;20232;-70
2021/03/16 20:23:46;;;;;;;2.50;1.83;;;6.80;38.30;;;;;;10425474;28;20232;-70
2021/03/16 20:28:50;;;;;;;2.77;2.20;;;6.60;38.10;;;;;;10432834;28;20233;-71
2021/03/16 20:33:52;;;;;;;2.23;2.13;;;6.40;38.90;;;;;;10436908;28;20225;-70
2021/03/16 20:38:54;;;;;;;2.97;2.77;;;6.30;39.10;;;;;;10435840;28;20613;-71
2021/03/16 20:44:01;;;;;;;3.20;2.90;;;6.20;39.30;;;;;;10442510;28;20233;-71
2021/03/16 20:49:03;;;;;;;3.83;3.53;;;6.10;39.60;;;;;;10441404;28;20894;-71
2021/03/16 20:54:05;;;;;;;4.47;4.07;;;6.00;39.60;;;;;;10441509;28;20603;-71
2021/03/16 20:59:09;;;;;;;5.10;4.60;;;6.10;39.80;;;;;;10446349;28;20237;-71
2021/03/16 21:04:11;;;;;;;3.50;3.20;;;6.10;39.90;;;;;;10436756;28;20252;-71
2021/03/16 21:09:14;;;;;;;3.53;3.07;;;6.10;39.70;;;;;;10447284;28;20317;-71
2021/03/16 21:14:26;;;;;;;3.87;2.90;;;6.10;39.80;;;;;;10450919;28;20232;-71
2021/03/16 21:19:29;;;;;;;2.70;2.50;;;6.20;40.40;;;;;;10447115;28;20228;-71
2021/03/16 21:24:31;;;;;;;2.77;2.57;;;6.10;40.10;;;;;;10449201;28;20225;-70
2021/03/16 21:29:34;;;;;;;3.27;2.97;;;6.20;40.20;;;;;;10449817;28;20225;-70
2021/03/16 21:34:36;;;;;;;3.63;3.07;;;6.20;40.30;;;;;;10445673;28;20311;-71
2021/03/16 21:39:38;;;;;;;3.50;3.20;;;6.30;40.20;;;;;;10448465;28;20320;-72
2021/03/16 21:44:44;;;;;;;4.27;3.70;;;6.40;40.20;;;;;;10448086;28;20309;-72
2021/03/16 21:49:47;;;;;;;4.73;4.10;;;6.40;40.20;;;;;;10441527;28;20279;-71
2021/03/16 21:54:49;;;;;;;4.83;4.13;;;6.50;40.10;;;;;;10418107;28;20598;-70
2021/03/16 21:59:52;;;;;;;4.73;4.20;;;6.50;40.10;;;;;;10444913;28;20225;-70
2021/03/16 22:04:54;;;;;;;6.67;4.50;;;6.50;40.10;;;;;;10439114;28;20245;-70
2021/03/16 22:09:56;;;;;;;5.13;3.87;;;6.60;40.10;;;;;;10438128;28;20713;-72
2021/03/16 22:15:08;;;;;;;4.47;3.80;;;6.60;40.00;;;;;;10438694;28;20236;-70
2021/03/16 22:20:12;;;;;;;3.60;3.30;;;6.60;40.50;;;;;;10443964;28;20808;-70
2021/03/16 22:25:15;;;;;;;3.07;2.80;;;6.50;40.20;;;;;;10441654;28;20734;-71
2021/03/16 22:30:19;;;;;;;3.97;2.80;;;6.40;40.20;;;;;;10439189;28;20647;-70
2021/03/16 22:35:22;;;;;;;2.57;2.37;;;6.30;40.40;;;;;;10439394;28;20233;-70
2021/03/16 22:40:24;;;;;;;3.53;2.43;;;6.20;40.20;;;;;;10441651;28;20593;-70
2021/03/16 22:45:28;;;;;;;2.67;2.40;;;6.20;40.50;;;;;;10435678;28;20221;-70
2021/03/16 22:50:30;;;;;;;2.40;1.93;;;6.10;40.50;;;;;;10438053;28;20247;-71
2021/03/16 22:55:48;;;;;;;2.07;1.87;;;6.10;40.50;;;;;;10439254;28;20715;-72
2021/03/16 23:00:51;;;;;;;1.93;1.73;;;6.10;40.40;;;;;;10436488;28;20242;-72
2021/03/16 23:05:53;;;;;;;1.73;1.63;;;6.10;40.80;;;;;;10431865;28;20225;-71
2021/03/16 23:10:56;;;;;;;1.90;1.80;;;6.10;40.50;;;;;;10436046;28;20721;-72
2021/03/16 23:15:59;;;;;;;2.37;2.17;;;6.10;40.60;;;;;;10432069;28;20243;-71
2021/03/16 23:21:05;;;;;;;2.47;2.20;;;6.10;40.80;;;;;;10432923;28;20233;-71
2021/03/16 23:26:08;;;;;;;4.10;3.40;;;6.10;41.00;;;;;;10427605;28;20229;-72
2021/03/16 23:31:11;;;;;;;3.77;3.47;;;6.10;41.10;;;;;;10433393;28;20563;-72
2021/03/16 23:36:14;;;;;;;3.83;3.53;;;6.10;41.20;;;;;;10434020;28;20244;-72
2021/03/16 23:41:16;;;;;;;4.40;4.00;;;6.10;40.80;;;;;;10435946;28;20268;-71
2021/03/16 23:46:19;;;;;;;4.00;3.70;;;6.10;41.00;;;;;;10429142;28;20247;-72
2021/03/16 23:51:22;;;;;;;4.37;3.40;;;6.10;41.30;;;;;;10442105;28;20708;-72
2021/03/16 23:56:24;;;;;;;4.77;3.30;;;6.00;41.20;;;;;;10428197;28;20229;-71
